sensor_id;sensor_type;location;lat;lon;timestamp;P1;durP1;ratioP1;P2;durP2;ratioP2
75356;SDS011;63946;51.986;5.930;2022-11-20T07:09:19;13.18;;;9.23;;
75356;SDS011;63946;51.986;5.930;2022-11-20T07:15:04;12.57;;;8.05;;
75356;SDS011;63946;51.986;5.930;2022-11-20T07:17:39;17.00;;;9.60;;
75356;SDS011;63946;51.986;5.930;2022-11-20T07:20:22;14.90;;;8.63;;
75356;SDS011;63946;51.986;5.930;2022-11-20T07:23:02;10.13;;;7.32;;
75356;SDS011;63946;51.986;5.930;2022-11-20T07:25:41;16.80;;;8.13;;
75356;SDS011;63946;51.986;5.930;2022-11-20T07:28:17;14.07;;;8.82;;
75356;SDS011;63946;51.986;5.930;2022-11-20T07:34:00;12.20;;;8.73;;
75356;SDS011;63946;51.986;5.930;2022-11-20T07:36:31;15.05;;;9.35;;
75356;SDS011;63946;51.986;5.930;2022-11-20T07:39:07;15.70;;;7.97;;
75356;SDS011;63946;51.986;5.930;2022-11-20T07:41:54;14.20;;;7.97;;
75356;SDS011;63946;51.986;5.930;2022-11-20T07:46:57;15.65;;;9.90;;
75356;SDS011;63946;51.986;5.930;2022-11-20T07:49:30;14.65;;;9.57;;
75356;SDS011;63946;51.986;5.930;2022-11-20T07:52:06;26.35;;;16.00;;
75356;SDS011;63946;51.986;5.930;2022-11-20T07:54:38;17.08;;;11.52;;
75356;SDS011;63946;51.986;5.930;2022-11-20T07:57:07;16.50;;;11.57;;
75356;SDS011;63946;51.986;5.930;2022-11-20T07:59:46;15.68;;;9.57;;
75356;SDS011;63946;51.986;5.930;2022-11-20T08:02:40;16.10;;;8.80;;
75356;SDS011;63946;51.986;5.930;2022-11-20T08:05:22;15.90;;;9.57;;
75356;SDS011;63946;51.986;5.930;2022-11-20T08:07:55;16.00;;;10.85;;
75356;SDS011;63946;51.986;5.930;2022-11-20T08:10:34;13.60;;;8.68;;
75356;SDS011;63946;51.986;5.930;2022-11-20T08:16:01;17.38;;;9.65;;
75356;SDS011;63946;51.986;5.930;2022-11-20T08:18:33;11.23;;;7.53;;
75356;SDS011;63946;51.986;5.930;2022-11-20T19:49:49;21.30;;;14.20;;
75356;SDS011;63946;51.986;5.930;2022-11-20T19:52:54;31.80;;;17.77;;
75356;SDS011;63946;51.986;5.930;2022-11-20T20:02:50;21.58;;;13.35;;
75356;SDS011;63946;51.986;5.930;2022-11-20T20:05:49;28.80;;;16.67;;
75356;SDS011;63946;51.986;5.930;2022-11-20T20:08:41;28.33;;;17.42;;
75356;SDS011;63946;51.986;5.930;2022-11-20T20:11:17;27.83;;;17.10;;
75356;SDS011;63946;51.986;5.930;2022-11-20T20:14:00;24.63;;;15.32;;
75356;SDS011;63946;51.986;5.930;2022-11-20T20:16:54;25.85;;;15.10;;
75356;SDS011;63946;51.986;5.930;2022-11-20T20:19:45;25.63;;;15.15;;
75356;SDS011;63946;51.986;5.930;2022-11-20T20:22:59;25.90;;;16.20;;
75356;SDS011;63946;51.986;5.930;2022-11-20T20:25:39;26.23;;;14.88;;
75356;SDS011;63946;51.986;5.930;2022-11-20T20:28:21;22.58;;;14.73;;
75356;SDS011;63946;51.986;5.930;2022-11-20T20:31:20;29.08;;;17.60;;
75356;SDS011;63946;51.986;5.930;2022-11-20T20:34:11;27.20;;;16.85;;
75356;SDS011;63946;51.986;5.930;2022-11-20T20:43:12;20.70;;;13.45;;
75356;SDS011;63946;51.986;5.930;2022-11-20T20:46:26;21.00;;;14.07;;
75356;SDS011;63946;51.986;5.930;2022-11-20T20:49:21;18.48;;;12.07;;
75356;SDS011;63946;51.986;5.930;2022-11-20T20:52:12;19.63;;;12.63;;
75356;SDS011;63946;51.986;5.930;2022-11-20T20:55:09;24.63;;;14.80;;
75356;SDS011;63946;51.986;5.930;2022-11-20T21:01:19;26.33;;;16.73;;
75356;SDS011;63946;51.986;5.930;2022-11-20T21:03:59;27.15;;;15.15;;
75356;SDS011;63946;51.986;5.930;2022-11-20T21:06:47;24.02;;;15.63;;
75356;SDS011;63946;51.986;5.930;2022-11-20T21:10:01;22.10;;;14.35;;
75356;SDS011;63946;51.986;5.930;2022-11-20T21:19:37;28.63;;;16.10;;
75356;SDS011;63946;51.986;5.930;2022-11-20T21:23:05;26.67;;;16.60;;
75356;SDS011;63946;51.986;5.930;2022-11-20T21:26:12;34.97;;;19.75;;
75356;SDS011;63946;51.986;5.930;2022-11-20T21:28:48;29.90;;;16.45;;
75356;SDS011;63946;51.986;5.930;2022-11-20T21:31:21;31.20;;;18.38;;
75356;SDS011;63946;51.986;5.930;2022-11-20T21:34:08;27.90;;;17.67;;
75356;SDS011;63946;51.986;5.930;2022-11-20T21:36:41;30.15;;;18.55;;
75356;SDS011;63946;51.986;5.930;2022-11-20T21:42:16;34.50;;;18.73;;
75356;SDS011;63946;51.986;5.930;2022-11-20T21:44:50;35.60;;;19.85;;
75356;SDS011;63946;51.986;5.930;2022-11-20T21:47:25;35.28;;;18.23;;
75356;SDS011;63946;51.986;5.930;2022-11-20T21:54:38;26.98;;;16.42;;
75356;SDS011;63946;51.986;5.930;2022-11-20T21:57:25;30.02;;;16.50;;
75356;SDS011;63946;51.986;5.930;2022-11-20T22:00:49;22.95;;;14.52;;
75356;SDS011;63946;51.986;5.930;2022-11-20T22:06:57;26.80;;;16.45;;
75356;SDS011;63946;51.986;5.930;2022-11-20T22:10:21;26.95;;;17.55;;
75356;SDS011;63946;51.986;5.930;2022-11-20T22:13:37;30.60;;;16.60;;
75356;SDS011;63946;51.986;5.930;2022-11-20T22:20:32;28.88;;;17.25;;
75356;SDS011;63946;51.986;5.930;2022-11-20T22:35:06;29.38;;;17.13;;
75356;SDS011;63946;51.986;5.930;2022-11-20T22:42:10;32.38;;;18.67;;
75356;SDS011;63946;51.986;5.930;2022-11-20T22:45:27;29.98;;;17.08;;
